Aviation Digital Data Service (ADDS)

Output produced by METARs form (0755 UTC 23 April 2017)
found at http://www.aviationweather.gov/adds/metars/
 
KSEG 230753Z AUTO 00000KT 10SM CLR 01/01 A3009 RMK AO2 SLP194 T00110006
KSEG 230653Z AUTO 00000KT 10SM CLR 02/01 A3009 RMK AO2 SLP193 T00170011
KSEG 230553Z AUTO 00000KT 10SM CLR 04/03 A3010 RMK AO2 SLP196 T00390028 10106 20028 53008
KSEG 230453Z AUTO 00000KT 10SM CLR 06/02 A3008 RMK AO2 SLP189 T00560022 401330056
KSEG 230353Z AUTO 02006KT 10SM CLR 08/02 A3008 RMK AO2 SLP188 T00780022
KSEG 230253Z AUTO 04004KT 10SM CLR 08/03 A3008 RMK AO2 SLP187 T00780028 53023
KSEG 230153Z AUTO 02009KT 10SM CLR 09/03 A3005 RMK AO2 SLP177 T00890028
KSEG 230053Z AUTO 02008KT 10SM CLR 10/03 A3003 RMK AO2 SLP169 T01000028
KSEG 222353Z AUTO 02006KT 10SM CLR 11/04 A3001 RMK AO2 SLP163 T01060044 10133 20106 53010
KSEG 222253Z AUTO 03008KT 10SM CLR 12/04 A2999 RMK AO2 SLP157 T01220044
KSEG 222153Z AUTO 01010KT 10SM CLR 13/04 A2999 RMK AO2 SLP155 T01280039
KSEG 222053Z AUTO 02007KT 330V040 10SM CLR 13/06 A2998 RMK AO2 SLP153 T01330056 58000
KSEG 221953Z AUTO 34006KT 10SM FEW042 13/06 A2999 RMK AO2 SLP155 T01280061
KSEG 221853Z AUTO 04005KT 10SM FEW032 SCT044 BKN120 12/06 A2998 RMK AO2 SLP153 T01220056
KSEG 221753Z AUTO 35006KT 10SM SCT034 BKN041 OVC110 12/07 A2998 RMK AO2 SLP153 60000 T01220067 10122 20106 56002
KSEG 221653Z AUTO 36005KT 10SM FEW024 OVC033 11/06 A2999 RMK AO2 RAE16 SLP155 P0000 T01110061
KSEG 221645Z AUTO 35006KT 10SM BKN026 OVC033 11/07 A2998 RMK AO2 RAE16 P0000 T01110067
KSEG 221553Z AUTO 34009KT 10SM -RA SCT030 BKN045 OVC070 12/07 A2998 RMK AO2 RAB11E35B53 SLP151 P0000 T01170067
KSEG 221453Z AUTO 02008KT 10SM SCT034 BKN055 OVC080 12/06 A2999 RMK AO2 RAB24E38 SLP155 P0000 60000 T01170061 53008
KSEG 221353Z AUTO 35005KT 10SM OVC080 12/06 A2998 RMK AO2 SLP151 T01170056
KSEG 221253Z AUTO 02007KT 10SM OVC080 12/06 A2997 RMK AO2 RAE02 SLP150 P0000 T01170061
KSEG 221153Z AUTO 01004KT 10SM -RA OVC080 11/06 A2997 RMK AO2 RAE1058B41 SLP146 P0000 60000 T01060061 10128 20100 53010
KSEG 221053Z AUTO 35004KT 10SM -RA OVC100 10/07 A2995 RMK AO2 RAB03 SLP142 P0000 T01000072
KSEG 220953Z AUTO 01004KT 10SM BKN110 11/07 A2994 RMK AO2 RAB33E42 SLP135 P0000 T01110072
KSEG 220853Z AUTO 02006KT 10SM OVC100 12/07 A2993 RMK AO2 SLP136 T01170067 58001
KSEG 220753Z AUTO 02004KT 10SM FEW044 OVC100 12/07 A2994 RMK AO2 SLP139 T01170072
KSEG 220653Z AUTO 03006KT 10SM SCT044 BKN100 12/07 A2993 RMK AO2 SLP136 T01220067
KSEG 220553Z AUTO 02005KT 10SM BKN110 13/07 A2994 RMK AO2 SLP137 T01280072 10194 20128 50017
KSEG 220453Z AUTO 02008KT 10SM SCT120 13/07 A2994 RMK AO2 SLP139 T01330072 402280133
KSEG 220353Z AUTO 01009G16KT 10SM CLR 14/08 A2992 RMK AO2 SLP132 T01440083
KSEG 220253Z AUTO 28007KT 10SM BKN110 18/06 A2989 RMK AO2 SLP119 T01830056 51013
KSEG 220153Z AUTO 29005KT 10SM FEW110 17/04 A2988 RMK AO2 SLP116 T01720044
KSEG 220053Z AUTO 00000KT 10SM CLR 17/05 A2987 RMK AO2 SLP112 T01720050
KSEG 212353Z AUTO 28005KT 10SM CLR 19/04 A2985 RMK AO2 SLP106 T01940039 10228 20183 53016
KSEG 212253Z AUTO VRB03KT 10SM CLR 22/09 A2983 RMK AO2 SLP099 T02170094
KSEG 212153Z AUTO VRB05KT 10SM CLR 22/09 A2982 RMK AO2 SLP095 T02220089
KSEG 212053Z AUTO 18007KT 10SM FEW038 SCT046 21/17 A2980 RMK AO2 SLP090 T02060172 58008